createdAt,value
2023-09-20T00:01:00.635Z,100631.75
2023-09-20T00:03:27.271Z,100628.44
2023-09-20T00:05:55.127Z,100636.09
2023-09-20T00:08:21.665Z,100634.41
2023-09-20T00:10:48.165Z,100631.94
2023-09-20T00:13:14.631Z,100622.44
2023-09-20T00:15:56.020Z,100628.09
2023-09-20T00:18:25.139Z,100627.94
2023-09-20T00:20:52.426Z,100635.78
2023-09-20T00:23:22.253Z,100635.78
2023-09-20T00:25:50.397Z,100634.44
2023-09-20T00:28:18.934Z,100634.44
2023-09-20T00:30:46.296Z,100630.44
2023-09-20T00:33:13.121Z,100629.47
2023-09-20T00:35:42.280Z,100636.78
2023-09-20T00:38:09.540Z,100644.44
2023-09-20T00:40:38.270Z,100631.47
2023-09-20T00:43:08.955Z,100641.47
2023-09-20T00:45:41.368Z,100639.13
2023-09-20T00:48:10.705Z,100642.13
2023-09-20T00:50:37.600Z,100634.78
2023-09-20T00:53:08.723Z,100635.66
2023-09-20T00:55:38.043Z,100637.31
2023-09-20T00:58:16.283Z,100643.28
2023-09-20T01:00:44.577Z,100634.31
2023-09-20T01:03:17.271Z,100634.78
2023-09-20T01:05:44.086Z,100639.44
2023-09-20T01:08:12.682Z,100646.28
2023-09-20T01:10:39.173Z,100643.44
2023-09-20T01:13:06.961Z,100653.75
2023-09-20T01:15:35.349Z,100648.09
2023-09-20T01:18:03.987Z,100646.91
2023-09-20T01:20:32.205Z,100649.59
2023-09-20T01:22:59.901Z,100649.59
2023-09-20T01:25:27.266Z,100649.44
2023-09-20T01:27:56.518Z,100651.44
2023-09-20T01:30:27.606Z,100645.44
2023-09-20T01:32:59.066Z,100647.13
2023-09-20T01:35:28.013Z,100644.47
2023-09-20T01:37:57.053Z,100637.97
2023-09-20T01:40:27.011Z,100632.13
2023-09-20T01:42:54.312Z,100634.13
2023-09-20T01:45:22.083Z,100632.31
2023-09-20T01:47:50.876Z,100638.81
2023-09-20T01:50:22.083Z,100630.34
2023-09-20T01:52:49.421Z,100624.84
2023-09-20T01:55:18.225Z,100637.28
2023-09-20T01:57:51.981Z,100630.81
2023-09-20T02:00:24.009Z,100634.47
2023-09-20T02:02:52.455Z,100642.94
2023-09-20T02:05:19.673Z,100628.66
2023-09-20T02:07:49.679Z,100640.31
2023-09-20T02:10:17.908Z,100636.31
2023-09-20T02:12:55.906Z,100635.13
2023-09-20T02:15:25.367Z,100644.78
2023-09-20T02:17:52.393Z,100645.97
2023-09-20T02:20:21.226Z,100641.66
2023-09-20T02:22:49.290Z,100636.00
2023-09-20T02:25:21.993Z,100635.63
2023-09-20T02:27:52.275Z,100622.50
2023-09-20T02:30:21.447Z,100627.16
2023-09-20T02:32:53.951Z,100619.84
2023-09-20T02:35:21.411Z,100630.34
2023-09-20T02:37:49.570Z,100619.84
2023-09-20T02:40:16.446Z,100623.16
2023-09-20T02:42:52.735Z,100621.19
2023-09-20T02:45:20.284Z,100629.81
2023-09-20T02:47:47.874Z,100620.81
2023-09-20T02:50:18.022Z,100623.66
2023-09-20T02:52:46.422Z,100623.66
2023-09-20T02:55:14.931Z,100624.16
2023-09-20T02:57:42.696Z,100621.00
2023-09-20T03:00:15.969Z,100607.19
2023-09-20T03:02:45.393Z,100629.81
2023-09-20T03:05:16.912Z,100620.00
2023-09-20T03:07:45.378Z,100617.69
2023-09-20T03:10:15.802Z,100619.69
2023-09-20T03:12:45.046Z,100616.00
2023-09-20T03:15:13.510Z,100612.03
2023-09-20T03:17:41.162Z,100608.69
2023-09-20T03:20:17.919Z,100605.53
2023-09-20T03:22:46.012Z,100613.66
2023-09-20T03:25:15.239Z,100611.50
2023-09-20T03:27:44.699Z,100614.34
2023-09-20T03:30:14.493Z,100614.34
2023-09-20T03:32:46.035Z,100607.84
2023-09-20T03:35:14.298Z,100614.34
2023-09-20T03:37:42.911Z,100623.66
2023-09-20T03:40:18.430Z,100619.19
2023-09-20T03:42:46.778Z,100613.00
2023-09-20T03:45:17.843Z,100618.34
2023-09-20T03:47:46.618Z,100605.34
2023-09-20T03:50:13.798Z,100611.00
2023-09-20T03:52:40.745Z,100614.19
2023-09-20T03:55:07.875Z,100613.69
2023-09-20T03:57:34.780Z,100606.03
2023-09-20T04:00:02.083Z,100609.69
2023-09-20T04:02:29.638Z,100616.50
2023-09-20T04:04:56.921Z,100604.38
2023-09-20T04:07:27.855Z,100607.53
2023-09-20T04:09:54.290Z,100609.19
2023-09-20T04:12:24.130Z,100615.53
2023-09-20T04:14:54.426Z,100611.19
2023-09-20T04:17:22.430Z,100600.69
2023-09-20T04:19:49.404Z,100612.00
2023-09-20T04:22:16.029Z,100611.19
2023-09-20T04:24:42.528Z,100610.88
2023-09-20T04:27:09.988Z,100610.38
2023-09-20T04:29:37.131Z,100617.19
2023-09-20T04:32:04.996Z,100624.19
2023-09-20T04:34:32.446Z,100616.19
2023-09-20T04:36:58.938Z,100625.31
2023-09-20T04:39:26.956Z,100634.63
2023-09-20T04:41:54.918Z,100639.47
2023-09-20T04:44:21.765Z,100636.16
2023-09-20T04:46:49.375Z,100639.47
2023-09-20T04:49:16.629Z,100635.66
2023-09-20T04:51:45.996Z,100634.84
2023-09-20T04:54:14.118Z,100640.81
2023-09-20T04:56:45.480Z,100646.31
2023-09-20T04:59:13.744Z,100638.81
2023-09-20T05:01:40.293Z,100638.81
2023-09-20T05:04:07.345Z,100645.78
2023-09-20T05:06:33.958Z,100641.28
2023-09-20T05:09:00.448Z,100646.13
2023-09-20T05:11:28.038Z,100642.16
2023-09-20T05:13:56.666Z,100638.47
2023-09-20T05:16:24.038Z,100635.47
2023-09-20T05:18:51.908Z,100638.47
2023-09-20T05:21:18.456Z,100644.78
2023-09-20T05:23:44.976Z,100644.78
2023-09-20T05:26:11.873Z,100643.97
2023-09-20T05:28:38.367Z,100640.81
2023-09-20T05:31:04.945Z,100646.94
2023-09-20T05:33:32.121Z,100649.78
2023-09-20T05:35:59.293Z,100657.09
2023-09-20T05:38:27.149Z,100650.28
2023-09-20T05:40:54.401Z,100649.78
2023-09-20T05:43:20.998Z,100660.75
2023-09-20T05:45:47.596Z,100667.75
2023-09-20T05:48:14.095Z,100663.75
2023-09-20T05:50:41.987Z,100679.41
2023-09-20T05:53:12.203Z,100673.09
2023-09-20T05:55:39.373Z,100672.41
2023-09-20T05:58:06.275Z,100669.91
2023-09-20T06:00:33.849Z,100674.56
2023-09-20T06:03:01.097Z,100670.56
2023-09-20T06:05:28.202Z,100671.91
2023-09-20T06:07:54.956Z,100676.56
2023-09-20T06:10:23.622Z,100676.56
2023-09-20T06:12:53.987Z,100676.72
2023-09-20T06:15:20.581Z,100681.72
2023-09-20T06:17:50.389Z,100677.41
2023-09-20T06:20:25.287Z,100676.91
2023-09-20T06:22:52.618Z,100679.91
2023-09-20T06:25:23.338Z,100677.56
2023-09-20T06:27:51.985Z,100679.38
2023-09-20T06:30:19.131Z,100681.88
2023-09-20T06:32:45.718Z,100682.41
2023-09-20T06:35:16.010Z,100679.44
2023-09-20T06:37:47.189Z,100684.41
2023-09-20T06:40:22.831Z,100685.38
2023-09-20T06:42:52.785Z,100688.56
2023-09-20T06:45:20.561Z,100690.03
2023-09-20T06:47:47.472Z,100693.50
2023-09-20T06:50:14.266Z,100689.47
2023-09-20T06:52:43.439Z,100682.31
2023-09-20T06:55:15.032Z,100687.75
2023-09-20T06:57:42.605Z,100689.25
2023-09-20T07:00:24.178Z,100689.72
2023-09-20T07:02:54.407Z,100699.56
2023-09-20T07:05:22.432Z,100695.84
2023-09-20T07:07:49.430Z,100700.66
2023-09-20T07:10:18.849Z,100703.66
2023-09-20T07:12:45.871Z,100698.97
2023-09-20T07:15:21.797Z,100707.31
2023-09-20T07:17:58.565Z,100709.13
2023-09-20T07:20:25.946Z,100709.91
2023-09-20T07:22:52.512Z,100712.56
2023-09-20T07:25:21.914Z,100701.03
2023-09-20T07:27:53.027Z,100702.81
2023-09-20T07:30:21.266Z,100702.97
2023-09-20T07:33:04.830Z,100696.06
2023-09-20T07:35:40.155Z,100697.50
2023-09-20T07:38:19.841Z,100704.03
2023-09-20T07:40:50.382Z,100696.19
2023-09-20T07:43:29.078Z,100709.22
2023-09-20T07:45:56.850Z,100706.53
2023-09-20T07:48:23.663Z,100711.16
2023-09-20T07:50:51.148Z,100703.81
2023-09-20T07:53:19.717Z,100710.88
2023-09-20T07:55:57.922Z,100709.84
2023-09-20T07:58:24.604Z,100709.50
2023-09-20T08:00:57.039Z,100712.47
2023-09-20T08:03:24.976Z,100713.94
2023-09-20T08:05:54.464Z,100710.69
2023-09-20T08:08:21.118Z,100715.69
2023-09-20T08:10:55.449Z,100726.59
2023-09-20T08:13:29.204Z,100717.22
2023-09-20T08:15:56.162Z,100723.75
2023-09-20T08:18:41.687Z,100721.66
2023-09-20T08:21:08.431Z,100713.16
2023-09-20T08:23:53.318Z,100714.28
2023-09-20T08:26:38.309Z,100710.88
2023-09-20T08:29:23.385Z,100713.25
2023-09-20T08:32:08.595Z,100723.38
2023-09-20T08:34:53.594Z,100713.22
2023-09-20T08:37:38.478Z,100722.47
2023-09-20T08:40:23.960Z,100729.38
2023-09-20T08:43:08.828Z,100720.75
2023-09-20T08:45:54.030Z,100721.00
2023-09-20T08:48:40.209Z,100714.38
2023-09-20T08:51:25.518Z,100724.69
2023-09-20T08:54:12.526Z,100726.09
2023-09-20T08:57:00.801Z,100719.81
2023-09-20T08:59:47.694Z,100718.75
2023-09-20T09:02:15.971Z,100710.31
2023-09-20T09:04:45.925Z,100712.44
2023-09-20T09:07:13.660Z,100710.81
2023-09-20T09:09:41.209Z,100709.97
2023-09-20T09:12:09.350Z,100712.00
2023-09-20T09:14:39.060Z,100712.94
2023-09-20T09:17:10.512Z,100710.91
2023-09-20T09:19:38.833Z,100704.28
2023-09-20T09:22:07.136Z,100704.88
2023-09-20T09:24:47.489Z,100706.19
2023-09-20T09:27:15.638Z,100710.69
2023-09-20T09:29:48.163Z,100708.34
2023-09-20T09:32:14.985Z,100710.22
2023-09-20T09:34:44.513Z,100703.72
2023-09-20T09:37:11.763Z,100709.75
2023-09-20T09:39:41.258Z,100705.72
2023-09-20T09:42:08.200Z,100708.44
2023-09-20T09:44:52.487Z,100702.13
2023-09-20T09:47:20.246Z,100707.97
2023-09-20T09:49:50.204Z,100707.81
2023-09-20T09:52:24.599Z,100701.66
2023-09-20T09:54:54.457Z,100697.25
2023-09-20T09:57:21.318Z,100694.72
2023-09-20T09:59:49.028Z,100690.91
2023-09-20T10:02:21.050Z,100704.16
2023-09-20T10:04:55.286Z,100700.44
2023-09-20T10:07:27.061Z,100699.28
2023-09-20T10:09:58.009Z,100696.06
2023-09-20T10:12:25.507Z,100693.44
2023-09-20T10:14:52.947Z,100696.28
2023-09-20T10:17:21.873Z,100681.78
2023-09-20T10:19:53.476Z,100690.88
2023-09-20T10:22:22.820Z,100677.66
2023-09-20T10:24:51.997Z,100676.66
2023-09-20T10:27:18.989Z,100669.47
2023-09-20T10:30:07.090Z,100668.00
2023-09-20T10:32:48.989Z,100669.00
2023-09-20T10:35:24.098Z,100670.19
2023-09-20T10:38:03.146Z,100671.28
2023-09-20T10:40:56.458Z,100655.38
2023-09-20T10:43:42.339Z,100666.22
2023-09-20T10:46:19.504Z,100655.41
2023-09-20T10:48:51.163Z,100649.19
2023-09-20T10:51:39.802Z,100650.53
2023-09-20T10:54:24.993Z,100641.50
2023-09-20T10:56:54.594Z,100642.88
2023-09-20T10:59:22.760Z,100645.75
2023-09-20T11:01:54.280Z,100635.81
2023-09-20T11:04:20.726Z,100640.78
2023-09-20T11:06:50.762Z,100635.81
2023-09-20T11:09:17.549Z,100636.72
2023-09-20T11:11:44.390Z,100631.06
2023-09-20T11:14:11.249Z,100630.63
2023-09-20T11:16:42.753Z,100628.00
2023-09-20T11:19:11.992Z,100628.28
2023-09-20T11:21:42.912Z,100629.72
2023-09-20T11:24:18.763Z,100629.66
2023-09-20T11:26:48.758Z,100625.88
2023-09-20T11:29:17.975Z,100631.28
2023-09-20T11:31:46.336Z,100630.25
2023-09-20T11:34:13.983Z,100622.66
2023-09-20T11:36:44.196Z,100622.81
2023-09-20T11:39:15.631Z,100625.06
2023-09-20T11:41:46.177Z,100625.78
2023-09-20T11:44:13.667Z,100626.88
2023-09-20T11:46:40.641Z,100621.38
2023-09-20T11:49:09.393Z,100619.19
2023-09-20T11:51:37.983Z,100627.09
2023-09-20T11:54:07.075Z,100619.88
2023-09-20T11:56:35.829Z,100624.19
2023-09-20T11:59:11.254Z,100623.13
2023-09-20T12:01:44.071Z,100611.69
2023-09-20T12:04:10.691Z,100610.50
2023-09-20T12:06:37.288Z,100613.97
2023-09-20T12:09:05.729Z,100607.81
2023-09-20T12:11:33.423Z,100622.63
2023-09-20T12:13:59.935Z,100617.22
2023-09-20T12:16:26.424Z,100612.69
2023-09-20T12:18:55.468Z,100611.88
2023-09-20T12:21:22.850Z,100611.50
2023-09-20T12:23:50.685Z,100602.16
2023-09-20T12:26:18.544Z,100598.47
2023-09-20T12:28:46.116Z,100594.44
2023-09-20T12:31:12.632Z,100588.31
2023-09-20T12:33:39.648Z,100582.63
2023-09-20T12:36:06.280Z,100580.63
2023-09-20T12:38:32.807Z,100582.78
2023-09-20T12:40:59.618Z,100585.00
2023-09-20T12:43:26.389Z,100582.22
2023-09-20T12:45:53.889Z,100565.22
2023-09-20T12:48:21.966Z,100567.44
2023-09-20T12:50:48.543Z,100567.91
2023-09-20T12:53:15.065Z,100556.94
2023-09-20T12:55:41.809Z,100566.88
2023-09-20T12:58:09.431Z,100564.00
2023-09-20T13:00:46.213Z,100568.94
2023-09-20T13:03:14.654Z,100558.56
2023-09-20T13:05:44.697Z,100555.28
2023-09-20T13:08:19.143Z,100559.34
2023-09-20T13:10:47.030Z,100545.34
2023-09-20T13:13:14.373Z,100544.91
2023-09-20T13:15:43.282Z,100543.25
2023-09-20T13:18:11.759Z,100552.59
2023-09-20T13:20:42.291Z,100536.75
2023-09-20T13:23:09.186Z,100543.34
2023-09-20T13:25:36.205Z,100543.44
2023-09-20T13:28:03.925Z,100543.59
2023-09-20T13:30:30.491Z,100540.09
2023-09-20T13:32:57.018Z,100538.16
2023-09-20T13:35:23.586Z,100539.88
2023-09-20T13:37:50.087Z,100543.31
2023-09-20T13:40:19.096Z,100536.72
2023-09-20T13:42:46.883Z,100532.50
2023-09-20T13:45:16.498Z,100530.00
2023-09-20T13:47:43.600Z,100532.84
2023-09-20T13:50:11.712Z,100537.78
2023-09-20T13:52:40.117Z,100541.81
2023-09-20T13:55:07.451Z,100535.56
2023-09-20T13:57:37.877Z,100545.34
2023-09-20T14:00:10.864Z,100550.59
2023-09-20T14:02:38.392Z,100543.22
2023-09-20T14:05:15.106Z,100541.22
2023-09-20T14:07:43.650Z,100540.09
2023-09-20T14:10:10.800Z,100534.88
2023-09-20T14:12:38.557Z,100535.72
2023-09-20T14:15:07.615Z,100532.16
2023-09-20T14:17:34.155Z,100522.44
2023-09-20T14:20:09.191Z,100520.47
2023-09-20T14:22:38.585Z,100510.75
2023-09-20T14:25:06.675Z,100514.88
2023-09-20T14:27:35.077Z,100504.66
2023-09-20T14:30:02.095Z,100501.81
2023-09-20T14:32:28.807Z,100500.63
2023-09-20T14:34:55.715Z,100508.44
2023-09-20T14:37:22.625Z,100503.06
2023-09-20T14:39:49.142Z,100500.22
2023-09-20T14:42:16.227Z,100500.28
2023-09-20T14:44:42.919Z,100503.91
2023-09-20T14:47:09.403Z,100502.63
2023-09-20T14:49:35.852Z,100485.84
2023-09-20T14:52:02.769Z,100502.25
2023-09-20T14:54:29.284Z,100489.53
2023-09-20T14:56:57.661Z,100486.25
2023-09-20T14:59:24.262Z,100489.09
2023-09-20T15:01:51.091Z,100487.00
2023-09-20T15:04:18.316Z,100491.88
2023-09-20T15:06:45.062Z,100485.75
2023-09-20T15:09:16.267Z,100494.72
2023-09-20T15:11:46.078Z,100493.44
2023-09-20T15:14:12.552Z,100487.69
2023-09-20T15:16:39.022Z,100478.22
2023-09-20T15:19:05.528Z,100471.22
2023-09-20T15:21:31.983Z,100482.56
2023-09-20T15:23:58.514Z,100475.09
2023-09-20T15:26:25.783Z,100471.38
2023-09-20T15:28:52.388Z,100461.13
2023-09-20T15:31:20.122Z,100466.84
2023-09-20T15:33:49.225Z,100471.69
2023-09-20T15:36:17.577Z,100467.16
2023-09-20T15:38:44.105Z,100467.53
2023-09-20T15:41:10.647Z,100462.22
2023-09-20T15:43:39.128Z,100459.34
2023-09-20T15:46:07.769Z,100468.31
2023-09-20T15:48:35.027Z,100470.72
2023-09-20T15:51:02.926Z,100464.97
2023-09-20T15:53:33.245Z,100463.25
2023-09-20T15:56:03.167Z,100461.63
2023-09-20T15:58:29.953Z,100459.47
2023-09-20T16:00:56.425Z,100448.44
2023-09-20T16:03:23.251Z,100447.97
2023-09-20T16:05:51.398Z,100446.69
2023-09-20T16:08:19.382Z,100446.25
2023-09-20T16:10:46.807Z,100445.84
2023-09-20T16:13:14.465Z,100449.53
2023-09-20T16:15:41.705Z,100454.84
2023-09-20T16:18:09.928Z,100445.84
2023-09-20T16:20:37.597Z,100446.25
2023-09-20T16:23:07.756Z,100451.16
2023-09-20T16:25:34.681Z,100440.84
2023-09-20T16:28:01.362Z,100441.25
2023-09-20T16:30:28.020Z,100436.69
2023-09-20T16:32:54.518Z,100438.31
2023-09-20T16:35:22.314Z,100442.75
2023-09-20T16:37:50.546Z,100441.91
2023-09-20T16:40:17.314Z,100444.34
2023-09-20T16:42:44.350Z,100446.38
2023-09-20T16:45:13.447Z,100441.81
2023-09-20T16:47:41.191Z,100436.06
2023-09-20T16:50:08.145Z,100438.84
2023-09-20T16:52:37.895Z,100436.75
2023-09-20T16:55:05.176Z,100431.38
2023-09-20T16:57:31.607Z,100427.66
2023-09-20T16:59:58.100Z,100427.19
2023-09-20T17:02:25.158Z,100423.84
2023-09-20T17:04:52.337Z,100429.09
2023-09-20T17:07:19.063Z,100427.81
2023-09-20T17:09:45.580Z,100434.19
2023-09-20T17:12:12.277Z,100428.84
2023-09-20T17:14:39.910Z,100432.44
2023-09-20T17:17:07.985Z,100436.03
2023-09-20T17:19:35.111Z,100435.09
2023-09-20T17:22:04.216Z,100421.97
2023-09-20T17:24:32.088Z,100433.72
2023-09-20T17:26:58.829Z,100431.63
2023-09-20T17:29:25.331Z,100429.56
2023-09-20T17:31:52.312Z,100435.59
2023-09-20T17:34:19.334Z,100426.16
2023-09-20T17:36:45.951Z,100424.09
2023-09-20T17:39:14.673Z,100421.63
2023-09-20T17:41:42.292Z,100428.47
2023-09-20T17:44:13.138Z,100425.16
2023-09-20T17:46:40.220Z,100425.13
2023-09-20T17:49:06.808Z,100424.66
2023-09-20T17:51:33.493Z,100427.88
2023-09-20T17:53:59.976Z,100433.88
2023-09-20T17:56:31.303Z,100433.72
2023-09-20T17:58:57.830Z,100439.31
2023-09-20T18:01:24.278Z,100435.94
2023-09-20T18:03:50.815Z,100434.25
2023-09-20T18:06:19.144Z,100443.16
2023-09-20T18:08:50.470Z,100440.25
2023-09-20T18:11:17.758Z,100436.94
2023-09-20T18:13:44.345Z,100440.56
2023-09-20T18:16:12.795Z,100440.09
2023-09-20T18:18:40.116Z,100444.94
2023-09-20T18:21:07.281Z,100443.97
2023-09-20T18:23:36.539Z,100447.13
2023-09-20T18:26:03.928Z,100451.56
2023-09-20T18:28:31.907Z,100445.78
2023-09-20T18:30:59.701Z,100442.88
2023-09-20T18:33:26.261Z,100449.34
2023-09-20T18:35:53.025Z,100450.06
2023-09-20T18:38:19.546Z,100445.47
2023-09-20T18:40:46.050Z,100451.81
2023-09-20T18:43:16.397Z,100452.50
2023-09-20T18:45:45.881Z,100460.91
2023-09-20T18:48:12.598Z,100463.16
2023-09-20T18:50:50.191Z,100459.41
2023-09-20T18:53:16.789Z,100458.03
2023-09-20T18:55:43.238Z,100450.63
2023-09-20T18:58:14.440Z,100453.75
2023-09-20T19:00:42.150Z,100446.31
2023-09-20T19:03:13.106Z,100443.91
2023-09-20T19:05:40.979Z,100448.34
2023-09-20T19:08:08.004Z,100447.41
2023-09-20T19:10:35.141Z,100454.31
2023-09-20T19:13:01.599Z,100468.94
2023-09-20T19:15:28.180Z,100458.19
2023-09-20T19:17:54.653Z,100460.75
2023-09-20T19:20:24.315Z,100455.72
2023-09-20T19:22:51.099Z,100455.47
2023-09-20T19:25:19.233Z,100454.91
2023-09-20T19:27:49.447Z,100449.13
2023-09-20T19:30:19.193Z,100453.06
2023-09-20T19:32:46.451Z,100455.00
2023-09-20T19:35:13.167Z,100459.50
2023-09-20T19:37:39.674Z,100461.25
2023-09-20T19:40:15.723Z,100458.31
2023-09-20T19:42:44.095Z,100461.03
2023-09-20T19:45:11.301Z,100448.91
2023-09-20T19:47:37.861Z,100454.00
2023-09-20T19:50:06.357Z,100459.78
2023-09-20T19:52:33.622Z,100453.34
2023-09-20T19:55:04.364Z,100448.03
2023-09-20T19:57:31.029Z,100449.47
2023-09-20T19:59:59.970Z,100449.22
2023-09-20T20:02:28.513Z,100444.09
2023-09-20T20:04:56.046Z,100444.03
2023-09-20T20:07:27.779Z,100443.28
2023-09-20T20:09:54.401Z,100444.84
2023-09-20T20:12:20.861Z,100447.47
2023-09-20T20:14:50.095Z,100440.78
2023-09-20T20:17:17.026Z,100434.41
2023-09-20T20:19:43.627Z,100429.28
2023-09-20T20:22:10.092Z,100429.63
2023-09-20T20:24:37.483Z,100428.59
2023-09-20T20:27:09.973Z,100425.19
2023-09-20T20:29:36.579Z,100424.25
2023-09-20T20:32:03.100Z,100428.28
2023-09-20T20:34:29.639Z,100425.81
2023-09-20T20:36:56.135Z,100416.22
2023-09-20T20:39:22.575Z,100414.59
2023-09-20T20:41:51.621Z,100414.03
2023-09-20T20:44:18.633Z,100410.13
2023-09-20T20:46:45.601Z,100404.19
2023-09-20T20:49:12.059Z,100404.44
2023-09-20T20:51:41.892Z,100404.00
2023-09-20T20:54:12.926Z,100390.13
2023-09-20T20:56:43.616Z,100405.88
2023-09-20T20:59:15.747Z,100396.19
2023-09-20T21:01:43.441Z,100402.31
2023-09-20T21:04:10.833Z,100398.41
2023-09-20T21:06:39.661Z,100400.28
2023-09-20T21:09:07.101Z,100400.88
2023-09-20T21:11:36.833Z,100390.81
2023-09-20T21:14:09.286Z,100389.25
2023-09-20T21:16:36.043Z,100389.34
2023-09-20T21:19:02.552Z,100378.00
2023-09-20T21:21:29.160Z,100381.47
2023-09-20T21:23:55.805Z,100390.34
2023-09-20T21:26:22.250Z,100390.44
2023-09-20T21:28:48.734Z,100398.13
2023-09-20T21:31:15.796Z,100390.81
2023-09-20T21:33:44.551Z,100385.47
2023-09-20T21:36:11.405Z,100392.34
2023-09-20T21:38:38.321Z,100382.19
2023-09-20T21:41:04.842Z,100376.13
2023-09-20T21:43:31.315Z,100381.81
2023-09-20T21:45:57.745Z,100371.03
2023-09-20T21:48:24.333Z,100378.19
2023-09-20T21:50:50.857Z,100375.19
2023-09-20T21:53:17.374Z,100388.75
2023-09-20T21:55:43.995Z,100373.00
2023-09-20T21:58:10.446Z,100383.06
2023-09-20T22:00:38.257Z,100374.19
2023-09-20T22:03:05.967Z,100372.56
2023-09-20T22:05:34.364Z,100376.94
2023-09-20T22:08:08.560Z,100366.19
2023-09-20T22:10:42.917Z,100368.09
2023-09-20T22:13:10.710Z,100370.56
2023-09-20T22:15:38.454Z,100368.91
2023-09-20T22:18:25.728Z,100360.41
2023-09-20T22:21:02.061Z,100365.59
2023-09-20T22:23:29.449Z,100363.47
2023-09-20T22:25:59.519Z,100363.63
2023-09-20T22:28:26.131Z,100355.00
2023-09-20T22:30:53.054Z,100353.69
2023-09-20T22:33:19.876Z,100352.41
2023-09-20T22:35:51.666Z,100356.78
2023-09-20T22:38:23.471Z,100360.78
2023-09-20T22:40:49.909Z,100358.19
2023-09-20T22:43:17.852Z,100357.34
2023-09-20T22:45:44.330Z,100353.25
2023-09-20T22:48:13.952Z,100353.09
2023-09-20T22:50:40.923Z,100350.16
2023-09-20T22:53:09.718Z,100359.25
2023-09-20T22:55:40.438Z,100342.78
2023-09-20T22:58:12.750Z,100346.59
2023-09-20T23:00:45.266Z,100340.69
2023-09-20T23:03:18.197Z,100341.63
2023-09-20T23:05:46.828Z,100336.53
2023-09-20T23:08:15.638Z,100333.69
2023-09-20T23:10:45.911Z,100330.75
2023-09-20T23:13:26.409Z,100333.56
2023-09-20T23:15:54.145Z,100334.06
2023-09-20T23:18:25.779Z,100331.91
2023-09-20T23:29:43.979Z,100319.97
2023-09-20T23:32:10.562Z,100318.91
2023-09-20T23:34:37.039Z,100324.25
2023-09-20T23:37:11.749Z,100314.88
2023-09-20T23:39:38.203Z,100324.69
2023-09-20T23:42:06.592Z,100322.00
2023-09-20T23:44:37.273Z,100317.97
2023-09-20T23:47:03.980Z,100317.63
2023-09-20T23:49:33.027Z,100315.13
2023-09-20T23:52:01.191Z,100315.50
2023-09-20T23:54:27.713Z,100313.94
2023-09-20T23:56:56.901Z,100313.50
2023-09-20T23:59:23.669Z,100307.81
